• Join FlightAware (Why Join?)
  • Login
  • US Flag 
12:32AM EDT


 

Airport Tracker/Info


-or-


 

Live Flight TrackerFlight Track Log ✈ UPS9321 ✈ 29-Jun-2012 ✈ KPHL - CYMX

Flight Track Log - Related Links

Times and Time Zones

All times are in EDT time to prevent confusion due to time zone crossing. See the UPS9321 flight status page for this flight to view local times or setup timezone preferences in your user account.

Time Position Orientation Groundspeed Altitude Reporting Facility
EDT Latitude Longitude Course Direction KTS MPH feet Rate Location/Type
11:00PM 39.8633 -75.2626 254° West 149 171 1,100  Level FlightAware ADS-B
11:00PM 39.8627 -75.2653 248° West 149 171 1,300 3,720 Climbing FlightAware ADS-B
11:00PM 39.8616 -75.2688 245° Southwest 152 175 1,600 3,480 Climbing FlightAware ADS-B
11:01PM 39.8592 -75.2755 242° Southwest 154 177 2,000 2,520 Climbing FlightAware ADS-B
11:01PM 39.8571 -75.2807 242° Southwest 158 182 2,200 1,320 Climbing FlightAware ADS-B
11:01PM 39.8513 -75.2952 242° Southwest 184 212 2,500 1,980 Climbing FlightAware ADS-B
11:01PM 39.8448 -75.3110 242° Southwest 193 222 3,200 2,700 Climbing FlightAware ADS-B
11:01PM 39.8378 -75.3281 242° Southwest 208 239 3,900 3,000 Climbing FlightAware ADS-B
11:02PM 39.8306 -75.3461 243° Southwest 215 247 4,800 3,720 Climbing FlightAware ADS-B
11:02PM 39.8245 -75.3619 241° Southwest 208 239 5,700 4,200 Climbing FlightAware ADS-B
11:02PM 39.8227 -75.3661 238° Southwest 204 235 6,000 4,500 Climbing FlightAware ADS-B
11:02PM 39.8206 -75.3705 232° Southwest 204 235 6,300 3,720 Climbing FlightAware ADS-B
11:02PM 39.8186 -75.3738 223° Southwest 205 236 6,500 3,420 Climbing FlightAware ADS-B
11:02PM 39.8160 -75.3770 216° Southwest 207 238 6,700 3,420 Climbing FlightAware ADS-B
11:02PM 39.8129 -75.3799 206° Southwest 212 244 6,900 3,000 Climbing FlightAware ADS-B
11:02PM 39.8096 -75.3820 205° Southwest 216 249 7,100 2,520 Climbing FlightAware ADS-B
11:02PM 39.8086 -75.3826 195° South 210 242 7,200 4,500 Climbing FlightAware
11:02PM 39.8052 -75.3838 188° South 221 254 7,400 4,800 Climbing FlightAware ADS-B
11:02PM 39.8015 -75.3845 178° South 226 260 7,600 3,720 Climbing FlightAware ADS-B
11:02PM 39.7963 -75.3843 168° South 231 266 7,900 4,260 Climbing FlightAware ADS-B
11:03PM 39.7930 -75.3834 162° South 235 270 8,100 3,000 Climbing FlightAware ADS-B
11:03PM 39.7885 -75.3815 154° Southeast 242 278 8,300 2,220 Climbing FlightAware ADS-B
11:03PM 39.7852 -75.3794 148° Southeast 247 284 8,400 3,000 Climbing FlightAware ADS-B
11:03PM 39.7821 -75.3769 141° Southeast 250 288 8,600 3,960 Climbing FlightAware ADS-B
11:03PM 39.7793 -75.3740 135° Southeast 254 292 8,800 3,600 Climbing FlightAware ADS-B
11:03PM 39.7776 -75.3718 132° Southeast 256 295 8,900 3,000 Climbing FlightAware
11:03PM 39.7763 -75.3699 128° Southeast 256 295 9,000 2,400 Climbing FlightAware ADS-B
11:03PM 39.7738 -75.3658 120° Southeast 259 298 9,100 3,000 Climbing FlightAware ADS-B
11:03PM 39.7718 -75.3613 114° Southeast 261 300 9,300 3,420 Climbing FlightAware ADS-B
11:03PM 39.7700 -75.3561 107° East 263 303 9,500 4,260 Climbing FlightAware ADS-B
11:03PM 39.7686 -75.3501 360° North 262 302 9,800 4,500 Climbing FlightAware
11:03PM 39.7686 -75.3501 100° East 263 303 9,800 3,000 Level FlightAware ADS-B
11:03PM 39.7675 -75.3418 94° East 262 302 10,100 3,240 Climbing FlightAware ADS-B
11:03PM 39.7670 -75.3329 91° East 262 302 10,400 3,120 Climbing FlightAware ADS-B
11:03PM 39.7668 -75.3147 87° East 263 303 11,000 1,920 Climbing FlightAware ADS-B
11:04PM 39.7675 -75.2972 86° East 266 306 11,500 1,920 Climbing FlightAware
11:04PM 39.7691 -75.2657 86° East 289 333 12,000 1,080 Climbing FlightAware ADS-B
11:04PM 39.7718 -75.2094 86° East 327 376 12,200 180 Climbing FlightAware ADS-B
11:05PM 39.7757 -75.1434 85° East 391 450 12,200  Level FlightAware ADS-B
11:05PM 39.7761 -75.1373 86° East 395 455 12,200  Level FlightAware
11:05PM 39.7797 -75.0660 87° East 423 487 12,200  Level FlightAware ADS-B
11:06PM 39.7825 -74.9880 87° East 425 489 12,200  Level FlightAware ADS-B
11:06PM 39.7855 -74.9108 86° East 426 490 12,200 60 Level FlightAware ADS-B
11:07PM 39.7892 -74.8324 86° East 425 489 12,300 120 Climbing FlightAware ADS-B
11:07PM 39.7899 -74.8191 85° East 426 490 12,300 1,560 Level FlightAware
11:07PM 39.7921 -74.7832 77° East 430 495 12,800 2,460 Climbing FlightAware ADS-B
11:08PM 39.7981 -74.7480 69° East 432 497 13,500 2,700 Climbing FlightAware ADS-B
11:08PM 39.8020 -74.7349 61° Northeast 431 496 13,700 2,460 Climbing FlightAware ADS-B
11:08PM 39.8133 -74.7083 239° Southwest 429 494 14,200 1,080 Climbing FlightAware ADS-B
11:08PM 39.8065 -74.7228 57° Northeast 430 495 13,900 3,000 Descending FlightAware
11:08PM 39.8181 -74.6998 49° Northeast 428 493 14,400 4,620 Climbing FlightAware ADS-B
11:08PM 39.8238 -74.6912 44° Northeast 427 491 14,600 3,000 Climbing FlightAware ADS-B
11:08PM 39.8347 -74.6775 38° Northeast 425 489 15,000 2,640 Climbing FlightAware ADS-B
11:09PM 39.8821 -74.6296 37° Northeast 431 496 16,300 2,460 Climbing FlightAware ADS-B
11:09PM 39.9326 -74.5800 37° Northeast 438 504 17,600 2,400 Climbing FlightAware ADS-B
11:10PM 39.9842 -74.5291 37° Northeast 445 512 18,800 2,220 Climbing FlightAware ADS-B
11:10PM 40.0385 -74.4752 37° Northeast 453 521 20,000 2,040 Climbing FlightAware ADS-B
11:11PM 40.0895 -74.4246 37° Northeast 459 528 21,000 1,860 Climbing FlightAware ADS-B
11:11PM 40.1422 -74.3731 33° Northeast 465 535 21,900 1,800 Climbing FlightAware ADS-B
11:11PM 40.1761 -74.3444 30° Northeast 467 537 22,500 1,740 Climbing FlightAware ADS-B
11:12PM 40.2232 -74.3093 28° Northeast 468 539 23,200 1,740 Climbing FlightAware ADS-B
11:12PM 40.2814 -74.2691 28° Northeast 472 543 24,100 1,560 Climbing FlightAware ADS-B
11:13PM 40.3406 -74.2282 27° Northeast 480 552 24,800 840 Climbing FlightAware ADS-B
11:13PM 40.4041 -74.1848 28° Northeast 496 571 25,000 180 Climbing FlightAware ADS-B
11:14PM 40.4687 -74.1405 27° Northeast 488 562 25,000  Level FlightAware ADS-B
11:14PM 40.5297 -74.0989 27° Northeast 493 567 25,000  Level FlightAware ADS-B
11:15PM 40.5932 -74.0557 27° Northeast 492 566 25,000  Level FlightAware ADS-B
11:15PM 40.6544 -74.0143 27° Northeast 492 566 25,000  Level FlightAware ADS-B
11:16PM 40.7024 -73.9816 27° Northeast 492 566 25,000  Level FlightAware ADS-B
11:16PM 40.7171 -73.9716 28° Northeast 492 566 25,000  Level FlightAware ADS-B
11:16PM 40.7634 -73.9397 28° Northeast 490 564 25,000  Level FlightAware ADS-B
11:17PM 40.7803 -73.9279 28° Northeast 489 563 25,000  Level FlightAware ADS-B
11:17PM 40.8270 -73.8954 28° Northeast 486 559 25,000  Level FlightAware ADS-B
11:17PM 40.8438 -73.8837 28° Northeast 485 558 25,000  Level FlightAware ADS-B
11:17PM 40.8888 -73.8525 27° Northeast 482 555 25,000  Level FlightAware ADS-B
11:18PM 40.9042 -73.8419 28° Northeast 481 554 25,000  Level FlightAware ADS-B
11:18PM 40.9493 -73.8108 27° Northeast 479 551 25,000  Level FlightAware ADS-B
11:18PM 40.9644 -73.8004 28° Northeast 479 551 25,000  Level FlightAware ADS-B
11:19PM 41.0248 -73.7586 26° Northeast 478 550 25,000  Level FlightAware ADS-B
11:19PM 41.0648 -73.7327 22° Northeast 475 547 25,000  Level FlightAware ADS-B
11:19PM 41.0753 -73.7272 17° North 474 545 25,000  Level FlightAware ADS-B
11:19PM 41.1087 -73.7134 10° North 473 544 25,000  Level FlightAware ADS-B
11:20PM 41.1519 -73.7033 North 467 537 25,000  Level FlightAware ADS-B
11:20PM 41.2173 -73.6990 North 461 531 25,000  Level FlightAware ADS-B
11:21PM 41.2998 -73.6954 North 460 529 25,000  Level FlightAware ADS-B
11:21PM 41.3661 -73.6924 North 461 531 25,000  Level FlightAware ADS-B
11:22PM 41.4311 -73.6892 North 461 531 25,000  Level FlightAware ADS-B
11:22PM 41.4962 -73.6859 North 462 532 25,000  Level FlightAware ADS-B
11:23PM 41.5433 -73.6853 North 461 531 25,000  Level Boston Center
11:24PM 41.6725 -73.6769 North 456 525 25,000  Level Boston Center
11:25PM 41.9060 -73.6661 North 463 533 25,000  Level FlightAware ADS-B
11:27PM 42.0555 -73.6584 North 464 534 25,000  Level FlightAware ADS-B
11:28PM 42.1860 -73.6518 359° North 464 534 25,000  Level FlightAware ADS-B
11:29PM 42.3028 -73.6550 356° North 460 529 25,000  Level FlightAware ADS-B
11:29PM 42.3926 -73.6638 352° North 460 529 25,000  Level FlightAware ADS-B
11:30PM 42.4583 -73.6756 356° North 458 527 25,000  Level Boston Center
11:31PM 42.5853 -73.6864 354° North 458 527 25,000  Level Boston Center
11:32PM 42.7144 -73.7033 355° North 463 533 25,000  Level Boston Center
11:33PM 42.8414 -73.7172 356° North 463 533 25,000  Level Boston Center
11:34PM 42.9683 -73.7283 355° North 458 527 25,000  Level Boston Center
11:35PM 43.0953 -73.7422 355° North 458 527 25,000  Level Boston Center
11:36PM 43.2222 -73.7564 355° North 458 527 25,000  Level Boston Center
11:37PM 43.3492 -73.7706 355° North 458 527 25,000  Level Boston Center
11:38PM 43.4617 -73.7844 355° North 458 527 25,000  Level Boston Center
11:39PM 43.5886 -73.7989 356° North 458 527 25,000  Level Boston Center
11:40PM 43.7822 -73.8172 355° North 450 518 25,000  Level FlightAware
11:41PM 43.8373 -73.8233 356° North 449 517 25,000  Level FlightAware
11:41PM 43.9094 -73.8311 356° North 448 516 25,000  Level FlightAware
11:42PM 43.9918 -73.8399 355° North 448 516 25,000  Level FlightAware
11:43PM 44.0639 -73.8478 355° North 448 516 25,000  Level FlightAware
11:43PM 44.1264 -73.8548 355° North 449 517 25,000  Level FlightAware
11:44PM 44.2043 -73.8635 355° North 448 516 25,000  Level FlightAware
11:44PM 44.2772 -73.8717 355° North 449 517 25,000  Level FlightAware
11:45PM 44.3399 -73.8788 355° North 449 517 25,000 -480 Level FlightAware
11:45PM 44.4208 -73.8883 355° North 446 513 24,500 -900 Descending FlightAware
11:46PM 44.4910 -73.8967 355° North 441 507 23,900 -1,020 Descending FlightAware
11:47PM 44.5858 -73.9090 350° North 431 496 23,200 -660 Descending FlightAware
11:47PM 44.6447 -73.9237 347° North 426 490 23,100 -240 Descending FlightAware
11:48PM 44.7100 -73.9454 346° North 425 489 23,000 -120 Descending FlightAware
11:49PM 44.7916 -73.9746 346° North 423 487 23,000  Level FlightAware
11:49PM 44.8502 -73.9957 347° North 424 488 23,000  Level FlightAware
11:50PM 44.9176 -74.0183 North 428 493 23,000 -240 Level FlightAware
11:50PM 45.0117 -74.0129 North 429 494 22,700 -2,220 Descending FlightAware
11:51PM 45.0811 -74.0031 North 427 491 20,100 -4,620 Descending FlightAware
11:51PM 45.1400 -73.9966 North 423 487 17,700 -4,200 Descending FlightAware
11:52PM 45.2156 -73.9886 North 403 464 15,200 -3,840 Descending FlightAware
11:53PM 45.2776 -73.9827 North 381 438 12,900 -3,180 Descending FlightAware
11:53PM 45.3303 -73.9771 North 348 400 11,800 -1,500 Descending FlightAware
11:54PM 45.3900 -73.9711 North 308 354 11,200 -840 Descending FlightAware
11:54PM 45.4380 -73.9666 North 291 335 10,800 -840 Descending FlightAware
11:55PM 45.4790 -73.9631 North 289 333 10,300 -1,020 Descending FlightAware
11:55PM 45.5125 -73.9610 North 283 326 9,900 -960 Descending FlightAware
11:56PM 45.5382 -73.9596 North 275 316 9,600 -1,080 Descending FlightAware
11:56PM 45.5578 -73.9569 25° Northeast 272 313 9,300 -1,620 Descending FlightAware
11:56PM 45.5739 -73.9462 37° Northeast 267 307 8,800 -1,800 Descending FlightAware
11:56PM 45.5885 -73.9306 39° Northeast 258 297 8,400 -2,160 Descending FlightAware
11:57PM 45.6166 -73.8983 40° Northeast 251 289 7,200 -2,700 Descending FlightAware
11:57PM 45.6302 -73.8821 40° Northeast 253 291 6,400 -2,940 Descending FlightAware
11:58PM 45.6488 -73.8600 40° Northeast 254 292 5,500 -2,580 Descending FlightAware
11:58PM 45.6704 -73.8340 40° Northeast 251 289 4,500 -1,980 Descending FlightAware
11:58PM 45.6838 -73.8177 40° Northeast 242 278 4,200 -900 Descending FlightAware
11:59PM 45.7000 -73.7979 41° Northeast 228 262 4,000 -600 Descending FlightAware
11:59PM 45.7165 -73.7775 41° Northeast 221 254 3,800 -780 Descending FlightAware
11:59PM 45.7302 -73.7606 41° Northeast 219 252 3,500 -540 Descending FlightAware
12:00AM 45.7505 -73.7351 37° Northeast 214 246 3,400 -180 Descending FlightAware
12:00AM 45.7610 -73.7238 11° North 205 236 3,400  Level FlightAware
12:00AM 45.7727 -73.7204 330° Northwest 187 215 3,400  Level FlightAware
12:01AM 45.7897 -73.7345 317° Northwest 172 198 3,400  Level FlightAware
12:01AM 45.7951 -73.7416 313° West 173 199 3,400  Level FlightAware
12:01AM 45.8112 -73.7666 281° West 169 194 3,400  Level FlightAware
12:01AM 45.8127 -73.7781 251° West 163 188 3,400  Level FlightAware
12:02AM 45.8046 -73.8115 246° West 144 166 3,400  Level FlightAware
12:02AM 45.7984 -73.8315 245° Southwest 124 143 3,400 -180 Level FlightAware
12:03AM 45.7949 -73.8421 235° Southwest 123 142 3,300 -480 Descending FlightAware
12:03AM 45.7921 -73.8478 225° Southwest 124 143 3,200 -720 Descending FlightAware
12:03AM 45.7814 -73.8631 226° Southwest 111 128 2,900 -600 Descending FlightAware
12:03AM 45.7760 -73.8710 225° Southwest 109 125 2,800 -540 Descending FlightAware
12:04AM 45.7688 -73.8813 225° Southwest 108 124 2,600 -540 Descending FlightAware
12:04AM 45.7602 -73.8936 225° Southwest 108 124 2,400 -540 Descending FlightAware
12:04AM 45.7531 -73.9038 225° Southwest 107 123 2,200 -540 Descending FlightAware
12:05AM 45.7478 -73.9113 225° Southwest 106 122 2,100 -540 Descending FlightAware
12:05AM 45.7376 -73.9259 225° Southwest 101 116 1,800 -540 Descending FlightAware
12:05AM 45.7324 -73.9334 226° Southwest 101 116 1,700 -480 Descending FlightAware
12:06AM 45.7245 -73.9450 225° Southwest 101 116 1,500 -600 Descending FlightAware
12:06AM 45.7142 -73.9595 225° Southwest 102 117 1,200 -660 Descending FlightAware
12:07AM 45.7073 -73.9694 225° Southwest 101 116 1,000 -480 Descending FlightAware
12:07AM 45.7017 -73.9773 225° Southwest 102 117 900 -300 Descending FlightAware